createdAt,value
2022-12-19T20:31:44.614Z,0.50
2022-12-19T20:32:44.380Z,0.50
2022-12-19T20:33:47.666Z,0.50
2022-12-19T20:34:44.289Z,0.50
2022-12-19T20:35:44.186Z,0.50
2022-12-19T20:36:44.001Z,0.50
2022-12-19T20:37:44.025Z,0.50
2022-12-19T20:38:43.910Z,0.50
2022-12-19T20:39:46.581Z,0.48
2022-12-19T20:40:43.819Z,0.41
2022-12-19T20:41:44.437Z,0.34
2022-12-19T20:42:44.140Z,0.34
2022-12-19T20:43:44.291Z,0.34
2022-12-19T20:44:43.442Z,0.34
2022-12-19T20:45:43.465Z,0.34
2022-12-19T20:46:44.003Z,0.34
2022-12-19T20:47:43.152Z,0.41
2022-12-19T20:48:43.071Z,0.49
2022-12-19T20:49:42.853Z,0.50
2022-12-19T20:50:43.704Z,0.50
2022-12-19T20:51:42.678Z,0.51
2022-12-19T20:52:42.580Z,0.50
2022-12-19T20:53:42.468Z,0.51
2022-12-19T20:54:43.189Z,0.51
2022-12-19T21:12:29.991Z,0.50
2022-12-19T21:13:30.520Z,0.50
2022-12-19T21:14:29.940Z,0.50
2022-12-19T21:15:29.724Z,0.50
2022-12-19T21:16:30.009Z,0.50
2022-12-19T21:17:29.413Z,0.51
2022-12-19T21:23:01.911Z,0.50
2022-12-19T21:34:04.688Z,2.70
2022-12-19T22:17:58.479Z,4.69
2022-12-19T22:28:58.049Z,5.37
2022-12-19T22:29:57.656Z,5.43
2022-12-19T22:30:57.559Z,5.50
2022-12-19T22:31:57.670Z,5.60
2022-12-19T22:32:57.459Z,5.64
2022-12-19T22:33:57.361Z,5.54
2022-12-19T22:34:57.266Z,5.69
2022-12-19T22:35:57.692Z,5.67
2022-12-19T22:36:57.198Z,5.78
2022-12-19T22:37:57.185Z,5.88
2022-12-19T22:38:57.121Z,5.96
2022-12-19T22:40:56.906Z,6.01
2022-12-19T22:41:56.824Z,6.02
2022-12-19T22:42:58.657Z,6.05
2022-12-19T22:43:56.842Z,6.01
2022-12-19T22:44:56.748Z,6.05
2022-12-19T22:45:58.309Z,6.14
2022-12-19T22:46:56.652Z,6.29
2022-12-19T22:47:56.558Z,6.46
2022-12-19T22:48:57.277Z,6.48
2022-12-19T22:49:56.451Z,6.55
2022-12-19T22:50:56.365Z,6.72
2022-12-19T22:51:56.764Z,6.70
2022-12-19T22:52:56.272Z,6.78
2022-12-19T22:53:56.186Z,6.83
2022-12-19T22:54:56.284Z,6.82
2022-12-19T22:55:56.081Z,6.79
2022-12-19T22:56:55.974Z,6.95
2022-12-19T22:57:56.289Z,7.00
2022-12-19T22:58:56.294Z,7.02
2022-12-19T22:59:55.791Z,7.07
2022-12-19T23:00:55.798Z,7.08
2022-12-19T23:01:56.029Z,7.23
2022-12-19T23:02:55.777Z,7.33
2022-12-19T23:03:55.971Z,7.30
2022-12-19T23:04:55.820Z,7.36
2022-12-19T23:05:55.447Z,7.32
2022-12-19T23:06:55.330Z,7.39
2022-12-19T23:07:56.265Z,7.49
2022-12-19T23:08:55.247Z,7.51
2022-12-19T23:09:55.155Z,7.57
2022-12-19T23:10:55.263Z,7.61
2022-12-19T23:11:55.275Z,7.66
2022-12-19T23:12:54.979Z,7.73
2022-12-19T23:13:54.862Z,7.74
2022-12-19T23:14:54.764Z,7.84
2022-12-19T23:15:54.770Z,7.97
2022-12-19T23:16:54.832Z,7.88
2022-12-19T23:17:54.615Z,7.94
2022-12-19T23:18:55.234Z,7.98
2022-12-19T23:19:54.392Z,8.05
2022-12-19T23:20:54.835Z,8.11
2022-12-19T23:21:55.328Z,8.12
2022-12-19T23:22:54.204Z,8.11
2022-12-19T23:23:54.114Z,8.13
2022-12-19T23:25:55.766Z,8.12
2022-12-19T23:26:53.953Z,8.12
2022-12-19T23:27:55.817Z,8.18
2022-12-19T23:28:53.859Z,8.25
2022-12-19T23:29:53.738Z,8.40
2022-12-19T23:30:54.287Z,8.56
2022-12-19T23:31:53.689Z,8.65
2022-12-19T23:32:53.562Z,8.75
2022-12-19T23:33:53.811Z,8.78
2022-12-19T23:34:53.774Z,8.85
2022-12-19T23:35:53.410Z,8.82
2022-12-19T23:37:21.838Z,8.95
2022-12-19T23:37:54.207Z,8.96
2022-12-19T23:38:53.184Z,8.96
2022-12-19T23:39:53.095Z,9.02
2022-12-19T23:40:53.010Z,9.10
2022-12-19T23:41:53.331Z,9.19
2022-12-19T23:42:52.933Z,9.16
2022-12-19T23:43:52.852Z,9.14
2022-12-19T23:44:52.611Z,9.30
2022-12-19T23:45:52.787Z,9.16
2022-12-19T23:47:02.320Z,9.41
2022-12-19T23:47:55.217Z,9.43
2022-12-19T23:48:52.364Z,9.44
2022-12-19T23:49:54.187Z,9.44
2022-12-19T23:50:52.256Z,9.43
2022-12-19T23:51:52.148Z,9.43
2022-12-19T23:52:52.173Z,9.46
2022-12-19T23:53:52.782Z,9.55
2022-12-19T23:54:51.972Z,9.66
2022-12-19T23:55:51.895Z,9.69
2022-12-19T23:56:51.894Z,9.68
2022-12-19T23:57:52.213Z,9.56
2022-12-19T23:58:51.716Z,9.55
2022-12-19T23:59:51.601Z,9.78
